Time;durP1;ratioP1;P1;durP2;ratioP2;P2;SDS_P1;SDS_P2;PMS_P1;PMS_P2;Temp;Humidity;BMP_temperature;BMP_pressure;BME280_temperature;BME280_humidity;BME280_pressure;Samples;Min_cycle;Max_cycle;Signal;HPM_P1;HPM_P2
2022/02/26 00:01:45;;;;;;;;;;;1.80;99.90;;;0.78;95.66;96655.28;10429440;28;1927;-71
2022/02/26 00:06:48;;;;;;;;;;;1.70;99.90;;;0.80;95.40;96656.72;10440183;28;1837;-71
2022/02/26 00:11:52;;;;;;;;;;;1.80;99.90;;;0.70;95.41;96650.09;10420530;28;1975;-71
2022/02/26 00:16:55;;;;;;;;;;;1.80;99.90;;;0.67;95.11;96661.06;10434478;28;1887;-71
2022/02/26 00:21:59;;;;;;;;;;;1.70;99.90;;;0.62;95.80;96669.56;10425126;28;1849;-72
2022/02/26 00:27:02;;;;;;;;;;;1.70;99.90;;;0.66;95.97;96670.03;10444667;28;1866;-71
2022/02/26 00:32:06;;;;;;;;;;;1.70;99.90;;;0.73;94.87;96676.19;10424044;28;1910;-71
2022/02/26 00:37:09;;;;;;;;;;;1.70;99.90;;;0.77;94.50;96674.81;10440760;28;1897;-71
2022/02/26 00:42:13;;;;;;;;;;;1.70;99.90;;;0.69;94.79;96696.91;10440973;28;1848;-71
2022/02/26 00:47:16;;;;;;;;;;;1.70;99.90;;;0.53;96.19;96686.59;10433254;28;1783;-71
2022/02/26 00:52:19;;;;;;;;;;;1.70;99.90;;;0.41;96.80;96688.91;10442535;28;1973;-72
2022/02/26 00:57:24;;;;;;;;;;;1.60;99.90;;;0.29;97.81;96700.97;10450462;28;1799;-70
2022/02/26 01:02:27;;;;;;;;;;;1.50;99.90;;;0.15;99.23;96701.84;10442211;28;2342;-70
2022/02/26 01:07:30;;;;;;;;;;;1.40;99.90;;;0.13;99.46;96712.63;10457118;28;1821;-71
2022/02/26 01:12:33;;;;;;;;;;;1.30;99.90;;;0.16;99.14;96714.06;10438100;28;2027;-72
2022/02/26 01:17:36;;;;;;;;;;;1.30;99.90;;;0.22;99.28;96719.41;10439459;28;1930;-73
2022/02/26 01:22:40;;;;;;;;;;;1.30;99.90;;;0.18;99.81;96727.91;10445225;28;1794;-72
2022/02/26 01:27:42;;;;;;;;;;;1.30;99.90;;;0.14;100.00;96730.09;10452904;28;1873;-70
2022/02/26 01:32:46;;;;;;;;;;;1.30;99.90;;;0.16;100.00;96740.50;10450802;28;1890;-72
2022/02/26 01:37:50;;;;;;;;;;;1.20;99.90;;;0.35;100.00;96725.88;10456242;28;1862;-72
2022/02/26 01:42:53;;;;;;;;;;;1.30;99.90;;;0.38;100.00;96726.34;10427624;28;1849;-71
2022/02/26 01:47:55;;;;;;;;;;;1.40;99.90;;;0.38;100.00;96744.84;10454504;28;1797;-71
2022/02/26 01:52:58;;;;;;;;;;;1.40;99.90;;;0.45;100.00;96735.16;10436783;28;1903;-72
2022/02/26 01:58:02;;;;;;;;;;;1.40;99.90;;;0.51;99.87;96731.75;10427214;28;1940;-70
2022/02/26 02:03:05;;;;;;;;;;;1.50;99.90;;;0.57;97.89;96735.47;10424936;28;1954;-70
2022/02/26 02:08:09;;;;;;;;;;;1.60;99.90;;;0.51;97.76;96730.94;10438113;28;2356;-71
2022/02/26 02:13:12;;;;;;;;;;;1.60;99.90;;;0.47;97.71;96734.97;10425022;28;2356;-71
2022/02/26 02:18:18;;;;;;;;;;;1.60;99.90;;;0.48;96.78;96732.13;10448349;28;2034;-72
2022/02/26 02:23:23;;;;;;;;;;;1.50;99.90;;;0.40;96.24;96745.47;10426673;28;1940;-71
2022/02/26 02:28:27;;;;;;;;;;;1.50;99.90;;;0.38;96.18;96750.13;10438935;28;1940;-71
2022/02/26 02:33:38;;;;;;;;;;;1.40;99.90;;;0.44;94.82;96746.72;10442349;28;1969;-72
2022/02/26 02:38:43;;;;;;;;;;;1.50;99.90;;;0.59;93.12;96748.53;10437519;28;1920;-70
2022/02/26 02:43:46;;;;;;;;;;;1.60;99.90;;;0.57;92.33;96750.53;10441958;28;1914;-70
2022/02/26 02:48:49;;;;;;;;;;;1.60;99.90;;;0.53;92.74;96748.25;10420289;28;1980;-71
2022/02/26 02:53:52;;;;;;;;;;;1.60;99.90;;;0.57;91.88;96751.34;10432746;28;1980;-70
2022/02/26 02:58:58;;;;;;;;;;;1.70;99.90;;;0.66;91.64;96763.47;10436694;28;1971;-72
2022/02/26 03:04:01;;;;;;;;;;;1.70;99.90;;;0.68;91.32;96771.22;10425268;28;2003;-70
2022/02/26 03:09:04;;;;;;;;;;;1.70;99.90;;;0.75;91.67;96780.03;10434417;28;1984;-70
2022/02/26 03:14:08;;;;;;;;;;;1.70;99.90;;;0.65;91.26;96779.53;10445608;28;2277;-71
2022/02/26 03:19:11;;;;;;;;;;;1.70;99.90;;;0.65;92.41;96798.06;10423411;28;2016;-71
2022/02/26 03:24:15;;;;;;;;;;;1.70;99.90;;;0.59;93.18;96788.22;10446731;28;1966;-71
2022/02/26 03:29:19;;;;;;;;;;;1.70;99.90;;;0.64;93.42;96797.25;10439410;28;1996;-72
2022/02/26 03:34:22;;;;;;;;;;;1.60;99.90;;;0.69;93.60;96804.59;10427576;28;2333;-71
2022/02/26 03:39:29;;;;;;;;;;;1.60;99.90;;;0.75;93.13;96801.22;10427046;28;1944;-70
2022/02/26 03:44:32;;;;;;;;;;;1.70;99.90;;;0.63;93.46;96808.00;10435919;28;2035;-70
2022/02/26 03:49:37;;;;;;;;;;;1.70;99.90;;;0.65;94.16;96801.53;10431152;28;1975;-69
2022/02/26 03:54:40;;;;;;;;;;;1.70;99.90;;;0.59;94.09;96814.69;10444582;28;2066;-69
2022/02/26 03:59:43;;;;;;;;;;;1.70;99.90;;;0.64;94.68;96814.94;10500152;22;3725;-68
2022/02/26 04:04:46;;;;;;;;;;;1.70;99.90;;;0.77;94.55;96830.97;10480004;28;1938;-70
2022/02/26 04:09:49;;;;;;;;;;;1.70;99.90;;;0.86;94.03;96836.97;10466623;28;1958;-69
2022/02/26 04:14:53;;;;;;;;;;;1.80;99.90;;;0.82;94.72;96839.16;10479088;28;1937;-69
2022/02/26 04:19:57;;;;;;;;;;;1.80;99.90;;;0.73;95.97;96842.94;10473663;28;1951;-69
2022/02/26 04:25:00;;;;;;;;;;;1.80;99.90;;;0.75;97.48;96830.31;10470057;28;2244;-69
2022/02/26 04:30:03;;;;;;;;;;;1.80;99.90;;;0.69;98.87;96842.47;10479088;28;2011;-70
2022/02/26 04:35:15;;;;;;;;;;;1.70;99.90;;;0.74;99.92;96836.63;10470042;28;1880;-69
2022/02/26 04:40:18;;;;;;;;;;;1.70;99.90;;;0.84;100.00;96839.81;10469378;28;1919;-70
2022/02/26 04:45:21;;;;;;;;;;;1.70;99.90;;;0.77;100.00;96862.75;10472493;28;1935;-69
2022/02/26 04:50:25;;;;;;;;;;;1.70;99.90;;;0.73;100.00;96862.28;10467869;28;1983;-69
2022/02/26 04:55:29;;;;;;;;;;;1.80;99.90;;;0.77;100.00;96858.25;10469624;28;1911;-69
2022/02/26 05:00:33;;;;;;;;;;;1.70;99.90;;;0.84;100.00;96868.94;10471675;28;1954;-70
2022/02/26 05:05:36;;;;;;;;;;;1.80;99.90;;;0.83;100.00;96864.66;10461299;28;2121;-70
2022/02/26 05:10:38;;;;;;;;;;;2.20;99.90;;;0.91;100.00;96872.47;10472010;28;2002;-71
2022/02/26 05:15:41;;;;;;;;;;;1.80;99.90;;;0.77;100.00;96876.78;10471658;28;1942;-72
2022/02/26 05:20:47;;;;;;;;;;;1.80;99.90;;;0.67;100.00;96878.06;10483183;28;1927;-70
2022/02/26 05:25:50;;;;;;;;;;;1.90;99.90;;;0.79;100.00;96881.88;10482977;28;1918;-70
2022/02/26 05:30:53;;;;;;;;;;;1.80;99.90;;;0.81;100.00;96890.47;10486229;28;1957;-69
2022/02/26 05:35:57;;;;;;;;;;;1.70;99.90;;;0.72;100.00;96894.22;10481797;28;2090;-70
2022/02/26 05:40:59;;;;;;;;;;;1.80;99.90;;;0.85;100.00;96897.03;10478552;28;1907;-69
2022/02/26 05:46:04;;;;;;;;;;;;;;;0.86;100.00;96903.97;10480297;28;2077;-71
2022/02/26 05:51:07;;;;;;;;;;;1.60;99.90;;;0.74;100.00;96916.03;10480035;28;1985;-70
2022/02/26 05:56:10;;;;;;;;;;;1.80;99.90;;;0.58;100.00;96913.59;10481646;28;2011;-71
2022/02/26 06:01:14;;;;;;;;;;;1.70;99.90;;;0.47;100.00;96926.25;10485300;28;1843;-71
2022/02/26 06:06:17;;;;;;;;;;;1.60;99.90;;;0.50;100.00;96920.59;10475176;28;1836;-71
2022/02/26 06:11:20;;;;;;;;;;;1.80;99.90;;;0.65;100.00;96931.19;10485868;28;1997;-69
2022/02/26 06:16:23;;;;;;;;;;;1.60;99.90;;;0.64;100.00;96931.38;10478511;28;2157;-70
2022/02/26 06:21:26;;;;;;;;;;;1.60;99.90;;;0.64;100.00;96937.50;10483478;28;2039;-70
2022/02/26 06:26:32;;;;;;;;;;;1.70;99.90;;;0.73;100.00;96946.16;10469990;28;2215;-71
2022/02/26 06:31:40;;;;;;;;;;;1.70;99.90;;;0.73;100.00;96949.59;10479650;28;1906;-69
2022/02/26 06:36:44;;;;;;;;;;;1.70;99.90;;;0.71;100.00;96962.22;10480124;28;1889;-69
2022/02/26 06:41:47;;;;;;;;;;;1.70;99.90;;;0.72;99.94;96968.31;10482021;28;2059;-69
2022/02/26 06:46:51;;;;;;;;;;;1.70;99.90;;;0.78;100.00;96955.19;10481228;28;1999;-71
2022/02/26 06:51:54;;;;;;;;;;;1.80;99.90;;;0.84;99.67;96974.00;10471025;28;1980;-72
2022/02/26 06:56:57;;;;;;;;;;;1.80;99.90;;;0.86;98.98;96982.56;10486280;28;1841;-71
2022/02/26 07:02:00;;;;;;;;;;;1.80;99.90;;;0.83;98.10;96986.41;10488006;28;1860;-71
2022/02/26 07:07:04;;;;;;;;;;;1.80;99.90;;;0.70;99.14;96994.13;10474026;28;1844;-70
2022/02/26 07:12:07;;;;;;;;;;;1.70;99.90;;;0.81;99.20;96994.50;10468504;28;1939;-68
2022/02/26 07:17:12;;;;;;;;;;;1.80;99.90;;;0.67;99.04;97015.69;10472716;28;1816;-70
2022/02/26 07:22:14;;;;;;;;;;;1.80;99.90;;;0.82;99.50;97017.31;10474051;28;1789;-70
2022/02/26 07:27:18;;;;;;;;;;;1.80;99.90;;;0.75;100.00;97023.53;10474133;28;1832;-71
2022/02/26 07:32:20;;;;;;;;;;;1.80;99.90;;;0.75;100.00;97028.81;10473610;28;1979;-69
2022/02/26 07:37:23;;;;;;;;;;;1.70;99.90;;;0.63;100.00;97030.25;10472265;28;1964;-72
2022/02/26 07:42:26;;;;;;;;;;;1.70;99.90;;;0.48;100.00;97049.59;10471387;28;1649;-71
2022/02/26 07:47:30;;;;;;;;;;;1.60;99.90;;;0.59;100.00;97050.16;10475620;28;1592;-70
2022/02/26 07:52:33;;;;;;;;;;;1.60;99.90;;;0.73;100.00;97057.31;10472830;28;1909;-69
2022/02/26 07:57:36;;;;;;;;;;;1.70;99.90;;;0.77;100.00;97058.59;10480259;28;1887;-70
2022/02/26 08:02:39;;;;;;;;;;;1.70;99.90;;;1.12;100.00;97056.22;10473215;28;1553;-69
2022/02/26 08:07:42;;;;;;;;;;;1.90;99.90;;;1.37;98.18;97049.66;10487736;28;1487;-69
2022/02/26 08:12:45;;;;;;;;;;;2.10;99.90;;;1.53;96.23;97048.63;10462106;28;1979;-70
2022/02/26 08:17:48;;;;;;;;;;;2.30;99.90;;;1.77;94.27;97050.13;10474374;28;1807;-71
2022/02/26 08:22:51;;;;;;;;;;;2.60;99.90;;;2.01;91.77;97047.13;10472625;28;1459;-71
2022/02/26 08:27:54;;;;;;;;;;;2.80;99.90;;;1.96;86.38;97049.50;10481480;28;1858;-70
2022/02/26 08:32:58;;;;;;;;;;;2.90;99.90;;;1.88;87.30;97052.28;10479604;28;1894;-70
2022/02/26 08:38:02;;;;;;;;;;;2.90;99.90;;;2.03;87.10;97055.69;10471692;28;1403;-71
2022/02/26 08:43:04;;;;;;;;;;;2.90;99.90;;;2.17;86.35;97069.94;10476603;28;1424;-71
2022/02/26 08:48:10;;;;;;;;;;;3.00;99.90;;;2.21;83.12;97062.41;10473734;28;1467;-71
2022/02/26 08:53:14;;;;;;;;;;;3.00;99.90;;;1.93;83.97;97071.13;10468090;28;1969;-70
2022/02/26 08:58:17;;;;;;;;;;;2.90;99.90;;;2.10;85.94;97067.22;10470683;28;1562;-71
2022/02/26 09:03:20;;;;;;;;;;;2.90;99.90;;;2.24;85.06;97073.47;10476072;28;1462;-71
2022/02/26 09:08:23;;;;;;;;;;;3.00;99.90;;;2.42;82.15;97067.72;10489784;28;1340;-70
2022/02/26 09:13:26;;;;;;;;;;;3.20;99.90;;;2.17;81.66;97069.94;10473290;28;1953;-70
2022/02/26 09:18:38;;;;;;;;;;;3.20;99.90;;;2.50;78.52;97072.91;10488200;28;1528;-70
2022/02/26 09:23:44;;;;;;;;;;;3.20;99.90;;;3.11;75.17;97067.00;10490670;28;1512;-70
2022/02/26 09:28:49;;;;;;;;;;;3.70;99.90;;;2.79;75.00;97077.22;10484132;28;1611;-71
2022/02/26 09:33:53;;;;;;;;;;;3.80;99.90;;;2.86;74.32;97082.56;10488565;28;1985;-71
2022/02/26 09:38:56;;;;;;;;;;;3.70;99.90;;;2.72;74.36;97066.53;10476518;28;2030;-72
2022/02/26 09:43:59;;;;;;;;;;;3.70;99.90;;;2.83;73.84;97072.34;10484254;28;1832;-70
2022/02/26 09:49:03;;;;;;;;;;;3.80;99.90;;;2.96;72.19;97067.13;10488173;28;1853;-71
2022/02/26 09:54:06;;;;;;;;;;;3.90;99.90;;;3.16;70.94;97070.72;10506627;28;1931;-70
2022/02/26 09:59:11;;;;;;;;;;;3.90;99.90;;;3.17;67.35;97069.72;10508156;28;1857;-71
2022/02/26 10:04:14;;;;;;;;;;;4.00;99.90;;;3.20;62.85;97074.66;10495912;22;1997;-71
2022/02/26 10:09:17;;;;;;;;;;;4.10;99.90;;;3.64;59.88;97070.78;10459493;28;1881;-70
2022/02/26 10:14:21;;;;;;;;;;;4.30;99.90;;;3.86;61.92;97081.31;10461147;28;2003;-71
2022/02/26 10:19:23;;;;;;;;;;;4.40;99.90;;;3.73;56.61;97074.09;10443540;28;2123;-71
2022/02/26 10:24:26;;;;;;;;;;;4.50;99.90;;;3.91;54.80;97081.53;10470130;28;1882;-71
2022/02/26 10:29:29;;;;;;;;;;;5.40;99.90;;;3.79;52.40;97083.94;10454011;28;1907;-70
2022/02/26 10:34:33;;;;;;;;;;;4.80;99.90;;;3.50;52.26;97079.72;10453802;28;1906;-71
2022/02/26 10:39:36;;;;;;;;;;;4.50;99.90;;;3.20;54.55;97073.84;10469353;28;1886;-70
2022/02/26 10:44:39;;;;;;;;;;;4.30;99.90;;;3.20;53.68;97069.34;10447279;28;1890;-71
2022/02/26 10:49:43;;;;;;;;;;;4.10;99.90;;;3.93;50.76;97067.00;10457919;28;1877;-73
2022/02/26 10:54:46;;;;;;;;;;;4.40;99.90;;;3.80;50.62;97069.63;10447566;28;1930;-71
2022/02/26 10:59:49;;;;;;;;;;;4.70;99.90;;;3.28;51.03;97075.50;10465311;28;1839;-72
2022/02/26 11:04:53;;;;;;;;;;;4.50;99.90;;;3.20;53.01;97071.19;10456797;28;1891;-71
2022/02/26 11:09:56;;;;;;;;;;;4.30;99.90;;;3.04;53.78;97069.63;10459233;28;1816;-71
2022/02/26 11:14:59;;;;;;;;;;;4.10;99.90;;;3.35;52.10;97060.41;10464519;28;1985;-70
2022/02/26 11:20:02;;;;;;;;;;;4.30;99.90;;;3.52;50.94;97067.06;10447917;28;2328;-71
2022/02/26 11:25:05;;;;;;;;;;;4.30;99.90;;;3.92;50.09;97064.53;10472115;28;1780;-71
2022/02/26 11:30:09;;;;;;;;;;;4.40;99.90;;;3.96;50.57;97055.97;10459620;28;1873;-69
2022/02/26 11:35:13;;;;;;;;;;;4.70;99.90;;;3.96;49.99;97048.00;10462918;28;1950;-73
2022/02/26 11:40:16;;;;;;;;;;;4.90;99.90;;;3.79;49.69;97047.53;10463545;28;1828;-71
2022/02/26 11:45:20;;;;;;;;;;;4.90;99.90;;;3.58;49.70;97034.34;10464228;28;1829;-71
2022/02/26 11:50:25;;;;;;;;;;;4.60;99.90;;;3.24;49.48;97027.22;10461019;28;1847;-72
2022/02/26 11:55:29;;;;;;;;;;;4.60;99.90;;;3.96;48.36;97025.88;10461224;28;1965;-71
2022/02/26 12:00:32;;;;;;;;;;;4.50;99.90;;;3.85;47.02;97023.81;10466792;28;1839;-71
2022/02/26 12:05:38;;;;;;;;;;;4.70;99.90;;;4.41;45.94;97008.34;10472012;28;1860;-70
2022/02/26 12:10:40;;;;;;;;;;;5.00;99.90;;;4.08;46.74;97018.97;10457095;28;2076;-72
2022/02/26 12:15:44;;;;;;;;;;;5.10;99.90;;;3.96;47.68;97025.88;10447007;28;1994;-70
2022/02/26 12:20:52;;;;;;;;;;;5.00;99.90;;;3.80;47.88;97022.56;10449653;28;2085;-71
2022/02/26 12:25:55;;;;;;;;;;;4.80;99.90;;;4.24;45.58;97023.06;10449739;28;2008;-72
2022/02/26 12:30:59;;;;;;;;;;;5.00;99.90;;;3.95;44.90;97016.28;10450311;28;1779;-71
2022/02/26 12:36:03;;;;;;;;;;;5.10;99.90;;;4.05;45.64;97008.69;10461111;28;1910;-70
2022/02/26 12:41:06;;;;;;;;;;;5.00;99.90;;;4.52;44.63;97001.59;10450508;28;2013;-70
2022/02/26 12:46:09;;;;;;;;;;;5.20;99.90;;;4.74;44.49;97002.19;10455295;28;1967;-72
2022/02/26 12:51:12;;;;;;;;;;;5.40;99.90;;;4.56;45.15;96995.63;10460137;28;1822;-70
2022/02/26 12:56:16;;;;;;;;;;;5.50;99.90;;;4.67;44.84;96996.88;10453746;28;1985;-70
2022/02/26 13:01:20;;;;;;;;;;;5.50;99.90;;;4.32;45.80;96991.72;10454101;28;2333;-72
2022/02/26 13:06:24;;;;;;;;;;;5.40;99.90;;;3.69;49.00;96999.22;10436845;28;2024;-71
2022/02/26 13:11:27;;;;;;;;;;;5.00;99.90;;;3.51;50.15;96990.97;10431869;28;1938;-71
2022/02/26 13:16:30;;;;;;;;;;;4.70;99.90;;;3.44;49.90;96990.13;10446879;28;1917;-72
2022/02/26 13:21:33;;;;;;;;;;;4.60;99.90;;;3.26;51.45;96980.03;10444821;28;1821;-71
2022/02/26 13:26:37;;;;;;;;;;;4.40;99.90;;;3.29;51.40;96989.44;10436474;28;1933;-70
2022/02/26 13:31:55;;;;;;;;;;;4.30;99.90;;;3.02;54.38;96978.69;10445109;28;1937;-72
2022/02/26 13:36:58;;;;;;;;;;;3.00;99.90;;;2.86;55.46;96986.97;10471223;28;1983;-71
2022/02/26 13:42:05;;;;;;;;;;;4.00;99.90;;;2.66;52.25;96974.38;10445163;28;1858;-70
2022/02/26 13:47:08;;;;;;;;;;;3.80;99.90;;;2.55;52.67;96964.31;10457335;28;1838;-71
2022/02/26 13:52:11;;;;;;;;;;;3.70;99.90;;;2.51;52.60;96960.41;10462213;28;1823;-72
2022/02/26 13:57:14;;;;;;;;;;;3.60;99.90;;;2.60;50.22;96956.56;10435185;28;1926;-71
2022/02/26 14:02:17;;;;;;;;;;;3.60;99.90;;;2.58;51.50;96963.94;10444506;28;1974;-71
2022/02/26 14:07:21;;;;;;;;;;;3.60;99.90;;;2.42;50.93;96957.09;10447458;28;2426;-71
2022/02/26 14:12:28;;;;;;;;;;;3.50;99.90;;;2.53;50.50;96953.06;10464301;28;1991;-71
2022/02/26 14:17:31;;;;;;;;;;;3.60;99.90;;;2.24;50.31;96947.97;10452864;28;1914;-71
2022/02/26 14:22:34;;;;;;;;;;;3.50;99.90;;;2.60;48.24;96953.91;10445054;28;1811;-72
2022/02/26 14:27:38;;;;;;;;;;;3.50;99.90;;;2.55;48.00;96953.72;10455841;28;1866;-72
2022/02/26 14:32:41;;;;;;;;;;;3.50;99.90;;;2.58;47.85;96942.69;10453053;28;1963;-70
2022/02/26 14:37:44;;;;;;;;;;;3.50;99.90;;;2.70;48.03;96930.50;10456535;28;1830;-71
2022/02/26 14:42:47;;;;;;;;;;;3.70;99.90;;;2.84;48.91;96931.41;10457352;28;1776;-71
2022/02/26 14:47:50;;;;;;;;;;;3.70;99.90;;;2.58;50.67;96931.25;10438522;28;1799;-71
2022/02/26 14:52:53;;;;;;;;;;;3.80;99.90;;;2.82;49.75;96928.13;10448971;28;1934;-72
2022/02/26 14:57:57;;;;;;;;;;;3.80;99.90;;;2.97;48.64;96923.50;10442801;28;1838;-73
2022/02/26 15:03:00;;;;;;;;;;;3.90;99.90;;;3.07;47.56;96912.50;10436681;28;1788;-72
2022/02/26 15:08:03;;;;;;;;;;;4.00;99.90;;;3.31;46.72;96920.97;10445035;28;1855;-71
2022/02/26 15:13:06;;;;;;;;;;;4.20;99.90;;;3.41;46.61;96911.59;10436110;28;1989;-72
2022/02/26 15:18:09;;;;;;;;;;;4.40;99.90;;;3.60;46.79;96920.63;10437545;28;1855;-72
2022/02/26 15:23:13;;;;;;;;;;;4.40;99.90;;;3.57;45.09;96928.22;10438675;28;1767;-73
2022/02/26 15:28:16;;;;;;;;;;;4.60;99.90;;;3.53;45.97;96919.81;10438002;28;1791;-71
2022/02/26 15:33:22;;;;;;;;;;;4.60;99.90;;;3.54;47.28;96916.13;10431381;28;1914;-70
2022/02/26 15:38:25;;;;;;;;;;;4.60;99.90;;;3.13;49.10;96922.34;10440782;28;2038;-71
2022/02/26 15:43:29;;;;;;;;;;;4.30;99.90;;;3.11;49.25;96919.06;10455419;28;1766;-72
2022/02/26 15:48:34;;;;;;;;;;;4.20;99.90;;;2.93;49.93;96924.09;10444605;28;1819;-72
2022/02/26 15:53:38;;;;;;;;;;;4.10;99.90;;;2.89;52.78;96917.53;10443616;28;1885;-70
2022/02/26 15:58:43;;;;;;;;;;;4.00;99.90;;;2.83;53.80;96919.13;10449919;28;1902;-73
2022/02/26 16:03:46;;;;;;;;;;;;;;;3.41;55.02;96922.22;10449605;28;1881;-72
2022/02/26 16:08:50;;;;;;;;;;;;;;;3.12;53.78;96914.59;10527588;22;1923;-70
2022/02/26 16:13:54;;;;;;;;;;;;;;;2.83;54.21;96926.28;10532959;28;1961;-70
2022/02/26 16:18:57;;;;;;;;;;;;;;;2.86;54.70;96923.22;10480999;28;1852;-72
2022/02/26 16:24:02;;;;;;;;;;;;;;;2.51;55.04;96922.44;10455200;28;1873;-70
2022/02/26 16:29:06;;;;;;;;;;;;;;;2.54;56.01;96919.38;10452854;28;1936;-71
2022/02/26 16:34:09;;;;;;;;;;;;;;;2.51;55.64;96927.75;10449537;28;1926;-72
2022/02/26 16:39:13;;;;;;;;;;;;;;;2.59;56.21;96933.69;10444144;28;1839;-70
2022/02/26 16:44:17;;;;;;;;;;;;;;;2.35;56.64;96940.28;10449031;28;1791;-71
2022/02/26 16:49:20;;;;;;;;;;;;;;;2.27;56.49;96953.69;10441340;28;1818;-72
2022/02/26 16:54:24;;;;;;;;;;;;;;;2.23;57.13;96949.81;10438391;28;1973;-70
2022/02/26 16:59:28;;;;;;;;;;;;;;;2.05;58.41;96958.22;10436500;28;1706;-70
2022/02/26 17:04:31;;;;;;;;;;;;;;;2.00;58.97;96950.00;10430254;28;1763;-70
2022/02/26 17:09:35;;;;;;;;;;;;;;;2.01;59.36;96946.34;10441096;28;1771;-71
2022/02/26 17:14:39;;;;;;;;;;;;;;;1.93;59.72;96953.63;10445613;28;2011;-73
2022/02/26 17:19:42;;;;;;;;;;;;;;;2.07;60.23;96955.38;10456010;28;1857;-72
2022/02/26 17:24:46;;;;;;;;;;;;;;;1.95;61.98;96970.97;10458323;28;1834;-76
2022/02/26 17:29:50;;;;;;;;;;;;;;;1.95;62.37;96967.50;10462663;28;1835;-71
2022/02/26 17:34:55;;;;;;;;;;;;;;;1.92;62.09;96974.00;10464575;28;2087;-72
2022/02/26 17:39:59;;;;;;;;;;;;;;;1.80;61.92;96975.53;10460157;28;1822;-71
2022/02/26 17:45:03;;;;;;;;;;;;;;;1.72;63.02;96975.63;10458730;28;1821;-69
2022/02/26 17:50:08;;;;;;;;;;;;;;;1.71;63.75;96987.25;10449108;28;1857;-69
2022/02/26 17:55:12;;;;;;;;;;;;;;;1.75;63.79;96980.56;10451085;28;1977;-71
2022/02/26 18:00:16;;;;;;;;;;;;;;;1.67;64.57;96986.00;10448203;28;1857;-71
2022/02/26 18:05:20;;;;;;;;;;;;;;;1.65;65.29;96993.28;10459479;28;1798;-70
2022/02/26 18:10:23;;;;;;;;;;;;;;;1.66;65.98;96992.31;10468517;28;1488;-71
2022/02/26 18:15:27;;;;;;;;;;;;;;;1.67;65.91;96988.66;10459491;28;1914;-71
2022/02/26 18:20:30;;;;;;;;;;;;;;;1.65;66.83;96993.28;10451643;28;1515;-72
2022/02/26 18:25:34;;;;;;;;;;;;;;;1.62;66.55;96990.03;10449202;28;1409;-70
2022/02/26 18:30:38;;;;;;;;;;;;;;;1.68;66.80;96983.16;10451192;28;1636;-69
2022/02/26 18:35:41;;;;;;;;;;;;;;;1.66;66.72;96979.06;10451107;28;1914;-72
2022/02/26 18:40:45;;;;;;;;;;;;;;;1.60;67.50;96985.94;10457903;28;1506;-70
2022/02/26 18:45:48;;;;;;;;;;;;;;;1.62;67.93;96990.03;10460881;28;1460;-70
2022/02/26 18:50:52;;;;;;;;;;;;;;;1.60;68.22;96992.03;10459274;28;1460;-70
2022/02/26 18:55:57;;;;;;;;;;;;;;;1.53;68.50;97004.41;10447877;28;1914;-70
2022/02/26 19:01:00;;;;;;;;;;;;;;;1.41;68.65;96992.66;10448118;28;1507;-72
2022/02/26 19:06:03;;;;;;;;;;;;;;;1.53;69.24;96993.81;10450596;28;1562;-70
2022/02/26 19:11:07;;;;;;;;;;;;;;;1.47;69.46;96993.72;10449246;28;1475;-72
2022/02/26 19:16:10;;;;;;;;;;;;;;;1.53;69.48;96991.16;10456574;28;1914;-71
2022/02/26 19:21:15;;;;;;;;;;;;;;;1.43;70.09;96989.81;10447590;28;1578;-72
2022/02/26 19:26:20;;;;;;;;;;;;;;;1.34;70.40;96983.81;10467027;28;1508;-68
2022/02/26 19:31:23;;;;;;;;;;;;;;;1.29;71.97;96984.34;10487429;28;1521;-72
2022/02/26 19:36:27;;;;;;;;;;;;;;;1.25;71.95;96983.06;10489744;28;1977;-69
2022/02/26 19:41:35;;;;;;;;;;;;;;;1.20;72.23;96979.31;10453312;28;1544;-73
2022/02/26 19:46:38;;;;;;;;;;;;;;;1.15;72.93;96987.03;10464124;28;1520;-71
2022/02/26 19:51:43;;;;;;;;;;;;;;;1.08;73.59;96984.25;10450831;28;1734;-71
2022/02/26 19:56:47;;;;;;;;;;;;;;;1.02;74.27;96969.16;10454982;28;1972;-72
2022/02/26 20:01:50;;;;;;;;;;;;;;;0.87;75.56;96970.97;10453062;28;1486;-71
2022/02/26 20:06:54;;;;;;;;;;;;;;;0.69;76.58;96950.16;10451908;28;1533;-71
2022/02/26 20:11:58;;;;;;;;;;;;;;;0.61;77.01;96947.59;10475352;28;1497;-69
2022/02/26 20:17:02;;;;;;;;;;;;;;;0.43;78.81;96946.13;10447506;28;2036;-72
2022/02/26 20:22:06;;;;;;;;;;;;;;;0.33;79.82;96956.16;10441820;28;1548;-71
2022/02/26 20:27:10;;;;;;;;;;;;;;;0.44;79.35;96979.50;10445647;28;1457;-68
2022/02/26 20:32:13;;;;;;;;;;;;;;;0.45;79.76;96997.06;10440883;28;1544;-71
2022/02/26 20:37:17;;;;;;;;;;;;;;;0.44;80.32;96989.28;10446768;28;2307;-72
2022/02/26 20:42:20;;;;;;;;;;;;;;;0.39;80.38;96999.59;10448148;28;1460;-71
2022/02/26 20:47:25;;;;;;;;;;;;;;;0.31;81.56;96992.53;10454843;28;1554;-73
2022/02/26 20:52:28;;;;;;;;;;;;;;;0.25;81.86;96996.75;10446982;28;1511;-72
2022/02/26 20:57:32;;;;;;;;;;;;;;;0.28;81.88;96986.78;10454295;28;1968;-71
2022/02/26 21:02:36;;;;;;;;;;;;;;;0.17;82.45;96988.03;10449971;28;1679;-72
2022/02/26 21:07:40;;;;;;;;;;;;;;;0.16;82.25;96984.56;10455665;28;1512;-71
2022/02/26 21:12:44;;;;;;;;;;;;;;;0.02;83.39;96979.25;10449377;28;1767;-73
2022/02/26 21:17:48;;;;;;;;;;;;;;;-0.19;84.84;96969.31;10469936;28;1989;-70
2022/02/26 21:22:53;;;;;;;;;;;;;;;-0.17;85.26;96965.50;10450800;28;1536;-70
2022/02/26 21:28:01;;;;;;;;;;;;;;;-0.20;85.58;96968.50;10438711;28;1585;-70
2022/02/26 21:33:04;;;;;;;;;;;;;;;-0.15;86.54;96963.50;10443947;28;1882;-71
2022/02/26 21:38:08;;;;;;;;;;;;;;;-0.20;87.12;96960.56;10438583;28;1989;-75
2022/02/26 21:43:11;;;;;;;;;;;0.80;99.90;;;-0.31;87.53;96964.47;10442387;28;2026;-71
2022/02/26 21:48:15;;;;;;;;;;;0.90;99.90;;;-0.28;88.40;96958.81;10453733;28;1860;-76
2022/02/26 21:53:18;;;;;;;;;;;0.80;99.90;;;-0.34;88.88;96956.06;10435817;28;1856;-72
2022/02/26 21:58:21;;;;;;;;;;;0.70;99.90;;;-0.36;88.69;96955.41;10436013;28;1929;-73
2022/02/26 22:03:27;;;;;;;;;;;;;;;-0.50;90.22;96954.38;10435773;28;1872;-74
2022/02/26 22:08:30;;;;;;;;;;;;;;;-0.55;91.04;96954.88;10442533;28;2407;-73
2022/02/26 22:13:34;;;;;;;;;;;;;;;-0.50;90.72;96954.38;10445726;28;1524;-72
2022/02/26 22:18:37;;;;;;;;;;;;;;;-0.62;91.54;96959.22;10441866;28;1980;-71
2022/02/26 22:23:41;;;;;;;;;;;;;;;-0.75;91.92;96956.31;10461522;28;1686;-74
2022/02/26 22:28:46;;;;;;;;;;;;;;;-0.62;93.24;96955.75;10461508;28;2314;-74
2022/02/26 22:33:52;;;;;;;;;;;;;;;-0.60;93.37;96954.56;10450423;22;2377;-70
2022/02/26 22:38:55;;;;;;;;;;;;;;;-0.53;93.09;96949.41;10439920;28;1971;-69
2022/02/26 22:43:59;;;;;;;;;;;;;;;-0.47;92.30;96948.72;10431744;28;1481;-70
2022/02/26 22:49:03;;;;;;;;;;;;;;;-0.59;93.20;96947.47;10431498;28;1516;-70
2022/02/26 22:54:06;;;;;;;;;;;;;;;-0.66;94.33;96950.00;10434941;28;1482;-69
2022/02/26 22:59:10;;;;;;;;;;;;;;;-0.64;94.59;96945.34;10429712;28;1914;-69
2022/02/26 23:04:14;;;;;;;;;;;;;;;-0.76;95.39;96941.50;10435498;28;1536;-69
2022/02/26 23:09:20;;;;;;;;;;;;;;;-0.78;95.13;96940.81;10436200;28;1761;-70
2022/02/26 23:14:24;;;;;;;;;;;;;;;-0.67;94.39;96931.69;10450515;28;1814;-70
2022/02/26 23:19:30;;;;;;;;;;;;;;;-0.78;94.46;96929.44;10431110;28;1985;-71
2022/02/26 23:24:34;;;;;;;;;;;;;;;-0.78;94.71;96934.72;10434069;28;1983;-70
2022/02/26 23:29:38;;;;;;;;;;;;;;;-0.96;96.10;96917.31;10425005;28;1877;-70
2022/02/26 23:34:41;;;;;;;;;;;0.10;99.90;;;-1.07;96.35;96909.00;10434827;28;2094;-69
2022/02/26 23:39:44;;;;;;;;;;;0.10;99.90;;;-0.95;97.24;96919.00;10436377;28;2098;-70
2022/02/26 23:44:48;;;;;;;;;;;0.20;99.90;;;-0.87;96.37;96908.38;10435140;28;1863;-69
2022/02/26 23:49:51;;;;;;;;;;;0.20;99.90;;;-0.85;95.86;96898.44;10429998;28;1863;-69
2022/02/26 23:54:54;;;;;;;;;;;0.30;99.90;;;-0.98;96.80;96905.31;10438060;28;1895;-69
2022/02/26 23:59:57;;;;;;;;;;;0.20;99.90;;;-0.95;96.60;96907.59;10424166;28;1998;-69
